map of RVY home
RVY - Airport
Location
City:  Rivera, Rivera, Uruguay
Name:Presidente General Don Óscar D. Gestido International Airport
Old (Alt.):Cerro Chapeau International Airport
ICAO:SURV
IATA:RVY

Details
Type:Airport (Aerodrome, Airfield)
Use:International (customs port of entry)
Latitude:30°58'28"S (-30.974568)
Longitude:55°28'34"W (-55.476188)
Datum:WGS 1984
Elevation:712 ft (217 m)
Variation:13.51°W (WMM2015 magnetic declination)
-0.17° annual change
Runways:unknown number
Longest:6004 ft (1830 m)

Time
Time Zone:UTC-3
Local Time:

Weather
TAF:SURV 172330Z 1800/1824 20005KT 9999 BKN010 BKN080 TX25/1818Z TN15/1810Z
TEMPO 1800/1806 34025G35KT 5000 TSRA BKN005 FEW040CB OVC060
BECMG 1808/1810 17015KT 9999 SCT023

Related Locations
Nearby:
Farthest:HSN: 12294 mi / 19784 km
Zhoushan (Chusan), 33, CN

Find:

   beyond  
but within

Other Information
Maps:
NOTAMs:
Links:
Sources:

  
  • flag of Uruguay
  • flag of Rivera
  

Sectional Chart

Flight Planning
at skyvector.com

Satellite Image

Google Maps Satellite view

 

Copyright © 2004-2018 Karl L. Swartz. All rights reserved.
The Great Circle Mapper name and logo are trademarks of the Great Circle Mapper.
All other trademarks mentioned herein belong to their respective owners.
Please see credits for attibutions and further copyright information.

  Follow gcmap on Facebook Follow gcmap on Twitter Follow gcmap on Google+ GCmap on LinkedIn

hCard Microformat

Geo Microformat